sensor_id;sensor_type;location;lat;lon;timestamp;temperature;humidity
30572;DHT22;17348;50.948;10.696;2024-02-26T00:00:06;1.00;99.90
30572;DHT22;17348;50.948;10.696;2024-02-26T00:03:10;1.00;99.90
30572;DHT22;17348;50.948;10.696;2024-02-26T00:06:12;1.00;99.90
30572;DHT22;17348;50.948;10.696;2024-02-26T00:09:14;1.00;99.90
30572;DHT22;17348;50.948;10.696;2024-02-26T00:12:17;0.90;99.90
30572;DHT22;17348;50.948;10.696;2024-02-26T00:15:20;0.90;99.90
30572;DHT22;17348;50.948;10.696;2024-02-26T00:18:23;0.90;99.90
30572;DHT22;17348;50.948;10.696;2024-02-26T00:21:25;0.90;99.90
30572;DHT22;17348;50.948;10.696;2024-02-26T00:24:27;0.90;99.90
30572;DHT22;17348;50.948;10.696;2024-02-26T00:27:29;0.90;99.90
30572;DHT22;17348;50.948;10.696;2024-02-26T00:30:33;0.80;99.90
30572;DHT22;17348;50.948;10.696;2024-02-26T00:33:35;0.80;99.90
30572;DHT22;17348;50.948;10.696;2024-02-26T00:36:38;0.80;99.90
30572;DHT22;17348;50.948;10.696;2024-02-26T00:39:40;0.80;99.90
30572;DHT22;17348;50.948;10.696;2024-02-26T00:42:43;0.80;99.90
30572;DHT22;17348;50.948;10.696;2024-02-26T00:45:48;0.80;99.90
30572;DHT22;17348;50.948;10.696;2024-02-26T00:48:50;0.80;99.90
30572;DHT22;17348;50.948;10.696;2024-02-26T00:51:53;0.80;99.90
30572;DHT22;17348;50.948;10.696;2024-02-26T00:54:55;0.70;99.90
30572;DHT22;17348;50.948;10.696;2024-02-26T00:57:57;0.80;99.90
30572;DHT22;17348;50.948;10.696;2024-02-26T01:01:01;0.70;99.90
30572;DHT22;17348;50.948;10.696;2024-02-26T01:04:04;0.70;99.90
30572;DHT22;17348;50.948;10.696;2024-02-26T01:07:06;0.80;99.90
30572;DHT22;17348;50.948;10.696;2024-02-26T01:10:09;0.80;99.90
30572;DHT22;17348;50.948;10.696;2024-02-26T01:13:11;0.80;99.90
30572;DHT22;17348;50.948;10.696;2024-02-26T01:16:15;0.80;99.90
30572;DHT22;17348;50.948;10.696;2024-02-26T01:19:17;0.90;99.90
30572;DHT22;17348;50.948;10.696;2024-02-26T01:22:19;0.90;99.90
30572;DHT22;17348;50.948;10.696;2024-02-26T01:25:22;0.90;99.90
30572;DHT22;17348;50.948;10.696;2024-02-26T01:28:24;0.80;99.90
30572;DHT22;17348;50.948;10.696;2024-02-26T01:31:28;0.90;99.90
30572;DHT22;17348;50.948;10.696;2024-02-26T01:34:30;0.90;99.90
30572;DHT22;17348;50.948;10.696;2024-02-26T01:37:32;0.90;99.90
30572;DHT22;17348;50.948;10.696;2024-02-26T01:40:35;0.90;99.90
30572;DHT22;17348;50.948;10.696;2024-02-26T01:43:37;1.00;99.90
30572;DHT22;17348;50.948;10.696;2024-02-26T01:46:41;1.00;99.90
30572;DHT22;17348;50.948;10.696;2024-02-26T01:49:43;1.00;99.90
30572;DHT22;17348;50.948;10.696;2024-02-26T01:52:47;1.00;99.90
30572;DHT22;17348;50.948;10.696;2024-02-26T01:55:49;1.00;99.90
30572;DHT22;17348;50.948;10.696;2024-02-26T01:58:52;1.10;99.90
30572;DHT22;17348;50.948;10.696;2024-02-26T02:01:58;1.10;99.90
30572;DHT22;17348;50.948;10.696;2024-02-26T02:05:01;1.10;99.90
30572;DHT22;17348;50.948;10.696;2024-02-26T02:08:04;1.10;99.90
30572;DHT22;17348;50.948;10.696;2024-02-26T02:11:06;1.20;99.90
30572;DHT22;17348;50.948;10.696;2024-02-26T02:14:09;1.20;99.90
30572;DHT22;17348;50.948;10.696;2024-02-26T02:17:12;1.20;99.90
30572;DHT22;17348;50.948;10.696;2024-02-26T02:20:16;1.20;99.90
30572;DHT22;17348;50.948;10.696;2024-02-26T02:23:20;1.20;99.90
30572;DHT22;17348;50.948;10.696;2024-02-26T02:26:22;1.20;99.90
30572;DHT22;17348;50.948;10.696;2024-02-26T02:29:25;1.20;99.90
30572;DHT22;17348;50.948;10.696;2024-02-26T02:32:29;1.20;99.90
30572;DHT22;17348;50.948;10.696;2024-02-26T02:35:32;1.20;99.90
30572;DHT22;17348;50.948;10.696;2024-02-26T02:38:36;1.30;99.90
30572;DHT22;17348;50.948;10.696;2024-02-26T02:41:38;1.30;99.90
30572;DHT22;17348;50.948;10.696;2024-02-26T02:44:40;1.30;99.90
30572;DHT22;17348;50.948;10.696;2024-02-26T02:47:42;1.30;99.90
30572;DHT22;17348;50.948;10.696;2024-02-26T02:50:45;1.30;99.90
30572;DHT22;17348;50.948;10.696;2024-02-26T02:53:49;1.40;99.90
30572;DHT22;17348;50.948;10.696;2024-02-26T02:56:51;1.40;99.90
30572;DHT22;17348;50.948;10.696;2024-02-26T02:59:53;1.30;99.90
30572;DHT22;17348;50.948;10.696;2024-02-26T03:02:56;1.40;99.90
30572;DHT22;17348;50.948;10.696;2024-02-26T03:05:58;1.30;99.90
30572;DHT22;17348;50.948;10.696;2024-02-26T03:09:02;1.30;99.90
30572;DHT22;17348;50.948;10.696;2024-02-26T03:12:04;1.30;99.90
30572;DHT22;17348;50.948;10.696;2024-02-26T03:15:07;1.30;99.90
30572;DHT22;17348;50.948;10.696;2024-02-26T03:18:09;1.30;99.90
30572;DHT22;17348;50.948;10.696;2024-02-26T03:21:12;1.30;99.90
30572;DHT22;17348;50.948;10.696;2024-02-26T03:24:15;1.30;99.90
30572;DHT22;17348;50.948;10.696;2024-02-26T03:27:17;1.20;99.90
30572;DHT22;17348;50.948;10.696;2024-02-26T03:30:20;1.20;99.90
30572;DHT22;17348;50.948;10.696;2024-02-26T03:33:22;1.30;99.90
30572;DHT22;17348;50.948;10.696;2024-02-26T03:36:24;1.30;99.90
30572;DHT22;17348;50.948;10.696;2024-02-26T03:39:28;1.30;99.90
30572;DHT22;17348;50.948;10.696;2024-02-26T03:42:30;1.40;99.90
30572;DHT22;17348;50.948;10.696;2024-02-26T03:45:33;1.40;99.90
30572;DHT22;17348;50.948;10.696;2024-02-26T03:48:35;1.40;99.90
30572;DHT22;17348;50.948;10.696;2024-02-26T03:51:37;1.40;99.90
30572;DHT22;17348;50.948;10.696;2024-02-26T03:54:41;1.40;99.90
30572;DHT22;17348;50.948;10.696;2024-02-26T03:57:43;1.50;99.90
30572;DHT22;17348;50.948;10.696;2024-02-26T04:00:45;1.60;99.90
30572;DHT22;17348;50.948;10.696;2024-02-26T04:03:48;1.60;99.90
30572;DHT22;17348;50.948;10.696;2024-02-26T04:06:51;1.60;99.90
30572;DHT22;17348;50.948;10.696;2024-02-26T04:09:54;1.60;99.90
30572;DHT22;17348;50.948;10.696;2024-02-26T04:12:57;1.60;99.90
30572;DHT22;17348;50.948;10.696;2024-02-26T04:15:59;1.60;99.90
30572;DHT22;17348;50.948;10.696;2024-02-26T04:19:02;1.70;99.90
30572;DHT22;17348;50.948;10.696;2024-02-26T04:22:04;1.70;99.90
30572;DHT22;17348;50.948;10.696;2024-02-26T04:25:08;1.80;99.90
30572;DHT22;17348;50.948;10.696;2024-02-26T04:28:11;1.80;99.90
30572;DHT22;17348;50.948;10.696;2024-02-26T04:31:13;1.80;99.90
30572;DHT22;17348;50.948;10.696;2024-02-26T04:34:15;1.90;99.90
30572;DHT22;17348;50.948;10.696;2024-02-26T04:37:18;1.90;99.90
30572;DHT22;17348;50.948;10.696;2024-02-26T04:40:21;2.00;99.90
30572;DHT22;17348;50.948;10.696;2024-02-26T04:43:24;2.00;99.90
30572;DHT22;17348;50.948;10.696;2024-02-26T04:46:27;2.00;99.90
30572;DHT22;17348;50.948;10.696;2024-02-26T04:49:29;2.10;99.90
30572;DHT22;17348;50.948;10.696;2024-02-26T04:52:31;2.10;99.90
30572;DHT22;17348;50.948;10.696;2024-02-26T04:55:35;2.00;99.90
30572;DHT22;17348;50.948;10.696;2024-02-26T04:58:37;2.10;99.90
30572;DHT22;17348;50.948;10.696;2024-02-26T05:01:39;2.00;99.90
30572;DHT22;17348;50.948;10.696;2024-02-26T05:04:42;2.00;99.90
30572;DHT22;17348;50.948;10.696;2024-02-26T05:07:44;2.00;99.90
30572;DHT22;17348;50.948;10.696;2024-02-26T05:10:48;2.10;99.90
30572;DHT22;17348;50.948;10.696;2024-02-26T05:13:50;2.10;99.90
30572;DHT22;17348;50.948;10.696;2024-02-26T05:16:53;2.10;99.90
30572;DHT22;17348;50.948;10.696;2024-02-26T05:19:55;2.10;99.90
30572;DHT22;17348;50.948;10.696;2024-02-26T05:22:57;2.10;99.90
30572;DHT22;17348;50.948;10.696;2024-02-26T05:26:01;2.10;99.90
30572;DHT22;17348;50.948;10.696;2024-02-26T05:29:04;2.10;99.90
30572;DHT22;17348;50.948;10.696;2024-02-26T05:32:06;2.10;99.90
30572;DHT22;17348;50.948;10.696;2024-02-26T05:35:09;2.10;99.90
30572;DHT22;17348;50.948;10.696;2024-02-26T05:38:11;2.10;99.90
30572;DHT22;17348;50.948;10.696;2024-02-26T05:41:15;2.10;99.90
30572;DHT22;17348;50.948;10.696;2024-02-26T05:44:22;2.10;99.90
30572;DHT22;17348;50.948;10.696;2024-02-26T05:47:25;2.10;99.90
30572;DHT22;17348;50.948;10.696;2024-02-26T05:50:27;2.10;99.90
30572;DHT22;17348;50.948;10.696;2024-02-26T05:53:29;2.10;99.90
30572;DHT22;17348;50.948;10.696;2024-02-26T05:56:33;2.20;99.90
30572;DHT22;17348;50.948;10.696;2024-02-26T05:59:35;2.10;99.90
30572;DHT22;17348;50.948;10.696;2024-02-26T06:02:38;2.20;99.90
30572;DHT22;17348;50.948;10.696;2024-02-26T06:05:40;2.20;99.90
30572;DHT22;17348;50.948;10.696;2024-02-26T06:08:43;2.50;99.90
30572;DHT22;17348;50.948;10.696;2024-02-26T06:11:46;2.60;99.90
30572;DHT22;17348;50.948;10.696;2024-02-26T06:14:49;2.60;99.90
30572;DHT22;17348;50.948;10.696;2024-02-26T06:17:51;2.60;99.90
30572;DHT22;17348;50.948;10.696;2024-02-26T06:20:54;2.70;99.90
30572;DHT22;17348;50.948;10.696;2024-02-26T06:23:56;2.70;99.90
30572;DHT22;17348;50.948;10.696;2024-02-26T06:27:01;2.70;99.90
30572;DHT22;17348;50.948;10.696;2024-02-26T06:30:04;2.60;99.90
30572;DHT22;17348;50.948;10.696;2024-02-26T06:33:07;2.60;99.90
30572;DHT22;17348;50.948;10.696;2024-02-26T06:36:09;2.50;99.90
30572;DHT22;17348;50.948;10.696;2024-02-26T06:39:11;2.50;99.90
30572;DHT22;17348;50.948;10.696;2024-02-26T06:42:15;2.50;99.90
30572;DHT22;17348;50.948;10.696;2024-02-26T06:45:17;2.50;99.90
30572;DHT22;17348;50.948;10.696;2024-02-26T06:48:20;2.50;99.90
30572;DHT22;17348;50.948;10.696;2024-02-26T06:51:22;2.60;99.90
30572;DHT22;17348;50.948;10.696;2024-02-26T06:54:25;2.70;99.90
30572;DHT22;17348;50.948;10.696;2024-02-26T06:57:28;2.70;99.90
30572;DHT22;17348;50.948;10.696;2024-02-26T07:00:30;2.80;99.90
30572;DHT22;17348;50.948;10.696;2024-02-26T07:03:33;2.80;99.90
30572;DHT22;17348;50.948;10.696;2024-02-26T07:06:35;2.90;99.90
30572;DHT22;17348;50.948;10.696;2024-02-26T07:09:37;3.00;99.90
30572;DHT22;17348;50.948;10.696;2024-02-26T07:12:41;3.10;99.90
30572;DHT22;17348;50.948;10.696;2024-02-26T07:15:43;3.30;99.90
30572;DHT22;17348;50.948;10.696;2024-02-26T07:18:46;3.40;99.90
30572;DHT22;17348;50.948;10.696;2024-02-26T07:21:48;3.50;99.90
30572;DHT22;17348;50.948;10.696;2024-02-26T07:24:50;3.60;99.90
30572;DHT22;17348;50.948;10.696;2024-02-26T07:27:54;3.70;99.90
30572;DHT22;17348;50.948;10.696;2024-02-26T07:30:56;3.70;99.90
30572;DHT22;17348;50.948;10.696;2024-02-26T07:33:59;3.80;99.90
30572;DHT22;17348;50.948;10.696;2024-02-26T07:37:01;3.80;99.90
30572;DHT22;17348;50.948;10.696;2024-02-26T07:40:05;3.80;99.90
30572;DHT22;17348;50.948;10.696;2024-02-26T07:43:10;3.80;99.90
30572;DHT22;17348;50.948;10.696;2024-02-26T07:46:12;3.90;99.90
30572;DHT22;17348;50.948;10.696;2024-02-26T07:49:15;3.90;99.90
30572;DHT22;17348;50.948;10.696;2024-02-26T07:52:17;3.90;99.90
30572;DHT22;17348;50.948;10.696;2024-02-26T07:55:19;3.90;99.90
30572;DHT22;17348;50.948;10.696;2024-02-26T07:58:24;3.90;99.90
30572;DHT22;17348;50.948;10.696;2024-02-26T08:01:27;3.90;99.90
30572;DHT22;17348;50.948;10.696;2024-02-26T08:04:29;4.00;99.90
30572;DHT22;17348;50.948;10.696;2024-02-26T08:07:31;4.10;99.90
30572;DHT22;17348;50.948;10.696;2024-02-26T08:10:34;4.20;99.90
30572;DHT22;17348;50.948;10.696;2024-02-26T08:13:37;4.30;99.90
30572;DHT22;17348;50.948;10.696;2024-02-26T08:16:40;4.50;99.90
30572;DHT22;17348;50.948;10.696;2024-02-26T08:19:42;4.50;99.90
30572;DHT22;17348;50.948;10.696;2024-02-26T08:22:44;4.60;99.90
30572;DHT22;17348;50.948;10.696;2024-02-26T08:25:46;4.80;99.90
30572;DHT22;17348;50.948;10.696;2024-02-26T08:28:50;5.00;99.90
30572;DHT22;17348;50.948;10.696;2024-02-26T08:31:53;5.10;99.90
30572;DHT22;17348;50.948;10.696;2024-02-26T08:34:55;5.30;99.90
30572;DHT22;17348;50.948;10.696;2024-02-26T08:37:57;5.50;99.90
30572;DHT22;17348;50.948;10.696;2024-02-26T08:41:00;5.60;99.90
30572;DHT22;17348;50.948;10.696;2024-02-26T08:44:04;5.70;99.90
30572;DHT22;17348;50.948;10.696;2024-02-26T08:47:06;5.80;99.90
30572;DHT22;17348;50.948;10.696;2024-02-26T08:50:09;5.80;99.90
30572;DHT22;17348;50.948;10.696;2024-02-26T08:53:13;5.90;99.90
30572;DHT22;17348;50.948;10.696;2024-02-26T08:56:15;5.90;99.90
30572;DHT22;17348;50.948;10.696;2024-02-26T08:59:22;5.90;99.90
30572;DHT22;17348;50.948;10.696;2024-02-26T09:02:25;5.90;99.90
30572;DHT22;17348;50.948;10.696;2024-02-26T09:05:27;6.00;99.90
30572;DHT22;17348;50.948;10.696;2024-02-26T09:08:29;6.00;99.90
30572;DHT22;17348;50.948;10.696;2024-02-26T09:11:32;6.00;99.90
30572;DHT22;17348;50.948;10.696;2024-02-26T09:14:35;6.10;99.90
30572;DHT22;17348;50.948;10.696;2024-02-26T09:17:38;6.20;99.90
30572;DHT22;17348;50.948;10.696;2024-02-26T09:20:40;6.30;99.90
30572;DHT22;17348;50.948;10.696;2024-02-26T09:23:43;6.40;99.90
30572;DHT22;17348;50.948;10.696;2024-02-26T09:26:45;6.60;99.90
30572;DHT22;17348;50.948;10.696;2024-02-26T09:29:49;6.70;99.90
30572;DHT22;17348;50.948;10.696;2024-02-26T09:32:51;6.70;99.90
30572;DHT22;17348;50.948;10.696;2024-02-26T09:35:53;6.80;99.90
30572;DHT22;17348;50.948;10.696;2024-02-26T09:38:56;6.90;99.90
30572;DHT22;17348;50.948;10.696;2024-02-26T09:41:59;7.00;99.90
30572;DHT22;17348;50.948;10.696;2024-02-26T09:45:10;7.00;99.90
30572;DHT22;17348;50.948;10.696;2024-02-26T09:48:14;7.00;99.90
30572;DHT22;17348;50.948;10.696;2024-02-26T09:51:18;6.90;99.90
30572;DHT22;17348;50.948;10.696;2024-02-26T09:54:24;7.00;99.90
30572;DHT22;17348;50.948;10.696;2024-02-26T09:57:27;6.90;99.90
30572;DHT22;17348;50.948;10.696;2024-02-26T10:00:31;6.80;99.90
30572;DHT22;17348;50.948;10.696;2024-02-26T10:03:38;6.90;99.90
30572;DHT22;17348;50.948;10.696;2024-02-26T10:06:43;6.90;99.90
30572;DHT22;17348;50.948;10.696;2024-02-26T10:09:46;7.00;99.90
30572;DHT22;17348;50.948;10.696;2024-02-26T10:12:48;6.90;99.90
30572;DHT22;17348;50.948;10.696;2024-02-26T10:15:52;6.80;99.90
30572;DHT22;17348;50.948;10.696;2024-02-26T10:18:54;6.80;99.90
30572;DHT22;17348;50.948;10.696;2024-02-26T10:21:57;6.80;99.90
30572;DHT22;17348;50.948;10.696;2024-02-26T10:25:00;6.90;99.90
30572;DHT22;17348;50.948;10.696;2024-02-26T10:28:02;7.10;99.90
30572;DHT22;17348;50.948;10.696;2024-02-26T10:31:06;7.20;99.90
30572;DHT22;17348;50.948;10.696;2024-02-26T10:34:09;7.30;99.90
30572;DHT22;17348;50.948;10.696;2024-02-26T10:37:11;7.20;99.90
30572;DHT22;17348;50.948;10.696;2024-02-26T10:40:15;7.40;99.90
30572;DHT22;17348;50.948;10.696;2024-02-26T10:43:18;7.50;99.90
30572;DHT22;17348;50.948;10.696;2024-02-26T10:46:21;7.60;99.90
30572;DHT22;17348;50.948;10.696;2024-02-26T10:49:24;7.70;99.90
30572;DHT22;17348;50.948;10.696;2024-02-26T10:52:32;7.70;99.90
30572;DHT22;17348;50.948;10.696;2024-02-26T10:55:35;7.80;99.90
30572;DHT22;17348;50.948;10.696;2024-02-26T10:58:38;7.90;99.90
30572;DHT22;17348;50.948;10.696;2024-02-26T11:01:43;8.00;99.90
30572;DHT22;17348;50.948;10.696;2024-02-26T11:04:47;8.00;99.90
30572;DHT22;17348;50.948;10.696;2024-02-26T11:07:52;8.10;99.90
30572;DHT22;17348;50.948;10.696;2024-02-26T11:10:55;8.20;99.90
30572;DHT22;17348;50.948;10.696;2024-02-26T11:13:59;8.20;99.90
30572;DHT22;17348;50.948;10.696;2024-02-26T11:17:04;8.40;99.90
30572;DHT22;17348;50.948;10.696;2024-02-26T11:20:10;8.30;99.90
30572;DHT22;17348;50.948;10.696;2024-02-26T11:23:13;8.40;99.90
30572;DHT22;17348;50.948;10.696;2024-02-26T11:26:17;8.40;99.90
30572;DHT22;17348;50.948;10.696;2024-02-26T11:29:22;8.40;99.90
30572;DHT22;17348;50.948;10.696;2024-02-26T11:32:26;8.30;99.90
30572;DHT22;17348;50.948;10.696;2024-02-26T11:35:28;8.40;99.90
30572;DHT22;17348;50.948;10.696;2024-02-26T11:38:33;8.40;99.90
30572;DHT22;17348;50.948;10.696;2024-02-26T11:41:36;8.40;99.90
30572;DHT22;17348;50.948;10.696;2024-02-26T11:44:39;8.40;99.90
30572;DHT22;17348;50.948;10.696;2024-02-26T11:47:56;8.40;99.90
30572;DHT22;17348;50.948;10.696;2024-02-26T11:50:58;8.40;99.90
30572;DHT22;17348;50.948;10.696;2024-02-26T11:54:01;8.40;99.90
30572;DHT22;17348;50.948;10.696;2024-02-26T11:57:03;8.40;99.90
30572;DHT22;17348;50.948;10.696;2024-02-26T12:00:13;8.40;99.90
30572;DHT22;17348;50.948;10.696;2024-02-26T12:03:17;8.30;99.90
30572;DHT22;17348;50.948;10.696;2024-02-26T12:06:19;8.20;99.90
30572;DHT22;17348;50.948;10.696;2024-02-26T12:09:40;8.20;99.90
30572;DHT22;17348;50.948;10.696;2024-02-26T12:12:43;8.10;99.90
30572;DHT22;17348;50.948;10.696;2024-02-26T12:15:55;8.10;99.90
30572;DHT22;17348;50.948;10.696;2024-02-26T12:18:59;8.00;99.90
30572;DHT22;17348;50.948;10.696;2024-02-26T12:22:02;7.90;99.90
30572;DHT22;17348;50.948;10.696;2024-02-26T12:25:06;7.80;99.90
30572;DHT22;17348;50.948;10.696;2024-02-26T12:28:10;7.90;99.90
30572;DHT22;17348;50.948;10.696;2024-02-26T12:31:13;7.80;99.90
30572;DHT22;17348;50.948;10.696;2024-02-26T12:34:17;7.80;99.90
30572;DHT22;17348;50.948;10.696;2024-02-26T12:37:20;7.80;99.90
30572;DHT22;17348;50.948;10.696;2024-02-26T12:40:23;7.80;99.90
30572;DHT22;17348;50.948;10.696;2024-02-26T12:43:26;7.80;99.90
30572;DHT22;17348;50.948;10.696;2024-02-26T12:46:28;7.90;99.90
30572;DHT22;17348;50.948;10.696;2024-02-26T12:49:32;7.90;99.90
30572;DHT22;17348;50.948;10.696;2024-02-26T12:52:36;7.90;99.90
30572;DHT22;17348;50.948;10.696;2024-02-26T12:55:38;8.00;99.90
30572;DHT22;17348;50.948;10.696;2024-02-26T12:58:42;8.00;99.90
30572;DHT22;17348;50.948;10.696;2024-02-26T13:01:45;8.00;99.90
30572;DHT22;17348;50.948;10.696;2024-02-26T13:04:49;8.10;99.90
30572;DHT22;17348;50.948;10.696;2024-02-26T13:07:52;8.10;99.90
30572;DHT22;17348;50.948;10.696;2024-02-26T13:10:55;8.10;99.90
30572;DHT22;17348;50.948;10.696;2024-02-26T13:13:57;8.10;99.90
30572;DHT22;17348;50.948;10.696;2024-02-26T13:17:00;8.20;99.90
30572;DHT22;17348;50.948;10.696;2024-02-26T13:20:07;8.20;99.90
30572;DHT22;17348;50.948;10.696;2024-02-26T13:23:11;8.20;99.90
30572;DHT22;17348;50.948;10.696;2024-02-26T13:26:14;8.20;99.90
30572;DHT22;17348;50.948;10.696;2024-02-26T13:29:17;8.20;99.90
30572;DHT22;17348;50.948;10.696;2024-02-26T13:32:21;8.10;99.90
30572;DHT22;17348;50.948;10.696;2024-02-26T13:35:24;8.10;99.90
30572;DHT22;17348;50.948;10.696;2024-02-26T13:38:27;8.10;99.90
30572;DHT22;17348;50.948;10.696;2024-02-26T13:41:30;8.10;99.90
30572;DHT22;17348;50.948;10.696;2024-02-26T13:44:33;8.20;99.90
30572;DHT22;17348;50.948;10.696;2024-02-26T13:47:40;8.30;99.90
30572;DHT22;17348;50.948;10.696;2024-02-26T13:50:44;8.30;99.90
30572;DHT22;17348;50.948;10.696;2024-02-26T13:53:47;8.30;99.90
30572;DHT22;17348;50.948;10.696;2024-02-26T13:56:49;8.30;99.90
30572;DHT22;17348;50.948;10.696;2024-02-26T13:59:53;8.40;99.90
30572;DHT22;17348;50.948;10.696;2024-02-26T14:02:55;8.40;99.90
30572;DHT22;17348;50.948;10.696;2024-02-26T14:05:59;8.50;99.90
30572;DHT22;17348;50.948;10.696;2024-02-26T14:09:01;8.40;99.90
30572;DHT22;17348;50.948;10.696;2024-02-26T14:12:05;8.40;99.90
30572;DHT22;17348;50.948;10.696;2024-02-26T14:15:08;8.40;99.90
30572;DHT22;17348;50.948;10.696;2024-02-26T14:18:11;8.40;99.90
30572;DHT22;17348;50.948;10.696;2024-02-26T14:21:16;8.50;99.90
30572;DHT22;17348;50.948;10.696;2024-02-26T14:24:18;8.60;99.90
30572;DHT22;17348;50.948;10.696;2024-02-26T14:27:20;8.60;99.90
30572;DHT22;17348;50.948;10.696;2024-02-26T14:30:23;8.60;99.90
30572;DHT22;17348;50.948;10.696;2024-02-26T14:33:25;8.50;99.90
30572;DHT22;17348;50.948;10.696;2024-02-26T14:36:29;8.50;99.90
30572;DHT22;17348;50.948;10.696;2024-02-26T14:39:31;8.50;99.90
30572;DHT22;17348;50.948;10.696;2024-02-26T14:42:34;8.60;99.90
30572;DHT22;17348;50.948;10.696;2024-02-26T14:45:36;8.60;99.90
30572;DHT22;17348;50.948;10.696;2024-02-26T14:48:39;8.70;99.90
30572;DHT22;17348;50.948;10.696;2024-02-26T14:51:43;8.70;99.90
30572;DHT22;17348;50.948;10.696;2024-02-26T14:54:45;8.70;99.90
30572;DHT22;17348;50.948;10.696;2024-02-26T14:57:48;8.70;99.90
30572;DHT22;17348;50.948;10.696;2024-02-26T15:00:51;8.70;99.90
30572;DHT22;17348;50.948;10.696;2024-02-26T15:03:53;8.80;99.90
30572;DHT22;17348;50.948;10.696;2024-02-26T15:06:57;8.70;99.90
30572;DHT22;17348;50.948;10.696;2024-02-26T15:09:59;8.70;99.90
30572;DHT22;17348;50.948;10.696;2024-02-26T15:13:02;8.70;99.90
30572;DHT22;17348;50.948;10.696;2024-02-26T15:16:05;8.80;99.90
30572;DHT22;17348;50.948;10.696;2024-02-26T15:19:08;8.80;99.90
30572;DHT22;17348;50.948;10.696;2024-02-26T15:22:12;8.80;99.90
30572;DHT22;17348;50.948;10.696;2024-02-26T15:25:14;8.70;99.90
30572;DHT22;17348;50.948;10.696;2024-02-26T15:28:17;8.70;99.90
30572;DHT22;17348;50.948;10.696;2024-02-26T15:31:20;8.60;99.90
30572;DHT22;17348;50.948;10.696;2024-02-26T15:34:22;8.60;99.90
30572;DHT22;17348;50.948;10.696;2024-02-26T15:37:26;8.60;99.90
30572;DHT22;17348;50.948;10.696;2024-02-26T15:40:29;8.60;99.90
30572;DHT22;17348;50.948;10.696;2024-02-26T15:43:31;8.70;99.90
30572;DHT22;17348;50.948;10.696;2024-02-26T15:46:39;8.60;99.90
30572;DHT22;17348;50.948;10.696;2024-02-26T15:49:41;8.60;99.90
30572;DHT22;17348;50.948;10.696;2024-02-26T15:52:45;8.70;99.90
30572;DHT22;17348;50.948;10.696;2024-02-26T15:55:47;8.70;99.90
30572;DHT22;17348;50.948;10.696;2024-02-26T15:58:52;8.70;99.90
30572;DHT22;17348;50.948;10.696;2024-02-26T16:01:55;8.70;99.90
30572;DHT22;17348;50.948;10.696;2024-02-26T16:04:57;8.70;99.90
30572;DHT22;17348;50.948;10.696;2024-02-26T16:08:05;8.70;99.90
30572;DHT22;17348;50.948;10.696;2024-02-26T16:11:08;8.70;99.90
30572;DHT22;17348;50.948;10.696;2024-02-26T16:14:17;8.60;99.90
30572;DHT22;17348;50.948;10.696;2024-02-26T16:17:24;8.60;99.90
30572;DHT22;17348;50.948;10.696;2024-02-26T16:20:27;8.60;99.90
30572;DHT22;17348;50.948;10.696;2024-02-26T16:23:32;8.60;99.90
30572;DHT22;17348;50.948;10.696;2024-02-26T16:26:34;8.70;99.90
30572;DHT22;17348;50.948;10.696;2024-02-26T16:29:37;8.60;99.90
30572;DHT22;17348;50.948;10.696;2024-02-26T16:32:40;8.50;99.90
30572;DHT22;17348;50.948;10.696;2024-02-26T16:35:44;8.50;99.90
30572;DHT22;17348;50.948;10.696;2024-02-26T16:38:48;8.50;99.90
30572;DHT22;17348;50.948;10.696;2024-02-26T16:41:50;8.50;99.90
30572;DHT22;17348;50.948;10.696;2024-02-26T16:44:52;8.50;99.90
30572;DHT22;17348;50.948;10.696;2024-02-26T16:47:56;8.50;99.90
30572;DHT22;17348;50.948;10.696;2024-02-26T16:50:58;8.50;99.90
30572;DHT22;17348;50.948;10.696;2024-02-26T16:54:02;8.50;99.90
30572;DHT22;17348;50.948;10.696;2024-02-26T16:57:05;8.50;99.90
30572;DHT22;17348;50.948;10.696;2024-02-26T17:00:08;8.50;99.90
30572;DHT22;17348;50.948;10.696;2024-02-26T17:03:13;8.50;99.90
30572;DHT22;17348;50.948;10.696;2024-02-26T17:06:16;8.50;99.90
30572;DHT22;17348;50.948;10.696;2024-02-26T17:09:25;8.40;99.90
30572;DHT22;17348;50.948;10.696;2024-02-26T17:12:27;8.40;99.90
30572;DHT22;17348;50.948;10.696;2024-02-26T17:15:30;8.40;99.90
30572;DHT22;17348;50.948;10.696;2024-02-26T17:18:32;8.40;99.90
30572;DHT22;17348;50.948;10.696;2024-02-26T17:21:35;8.40;99.90
30572;DHT22;17348;50.948;10.696;2024-02-26T17:24:38;8.40;99.90
30572;DHT22;17348;50.948;10.696;2024-02-26T17:27:42;8.40;99.90
30572;DHT22;17348;50.948;10.696;2024-02-26T17:30:44;8.40;99.90
30572;DHT22;17348;50.948;10.696;2024-02-26T17:33:49;8.40;99.90
30572;DHT22;17348;50.948;10.696;2024-02-26T17:36:51;8.40;99.90
30572;DHT22;17348;50.948;10.696;2024-02-26T17:39:55;8.40;99.90
30572;DHT22;17348;50.948;10.696;2024-02-26T17:42:58;8.40;99.90
30572;DHT22;17348;50.948;10.696;2024-02-26T17:46:00;8.40;99.90
30572;DHT22;17348;50.948;10.696;2024-02-26T17:49:03;8.40;99.90
30572;DHT22;17348;50.948;10.696;2024-02-26T17:52:05;8.40;99.90
30572;DHT22;17348;50.948;10.696;2024-02-26T17:55:09;8.40;99.90
30572;DHT22;17348;50.948;10.696;2024-02-26T17:58:11;8.40;99.90
30572;DHT22;17348;50.948;10.696;2024-02-26T18:01:15;8.40;99.90
30572;DHT22;17348;50.948;10.696;2024-02-26T18:04:18;8.40;99.90
30572;DHT22;17348;50.948;10.696;2024-02-26T18:07:20;8.40;99.90
30572;DHT22;17348;50.948;10.696;2024-02-26T18:10:24;8.40;99.90
30572;DHT22;17348;50.948;10.696;2024-02-26T18:13:26;8.30;99.90
30572;DHT22;17348;50.948;10.696;2024-02-26T18:16:28;8.30;99.90
30572;DHT22;17348;50.948;10.696;2024-02-26T18:19:31;8.30;99.90
30572;DHT22;17348;50.948;10.696;2024-02-26T18:22:34;8.30;99.90
30572;DHT22;17348;50.948;10.696;2024-02-26T18:25:37;8.30;99.90
30572;DHT22;17348;50.948;10.696;2024-02-26T18:28:40;8.30;99.90
30572;DHT22;17348;50.948;10.696;2024-02-26T18:31:42;8.30;99.90
30572;DHT22;17348;50.948;10.696;2024-02-26T18:34:45;8.30;99.90
30572;DHT22;17348;50.948;10.696;2024-02-26T18:37:47;8.30;99.90
30572;DHT22;17348;50.948;10.696;2024-02-26T18:40:51;8.30;99.90
30572;DHT22;17348;50.948;10.696;2024-02-26T18:43:53;8.30;99.90
30572;DHT22;17348;50.948;10.696;2024-02-26T18:46:56;8.30;99.90
30572;DHT22;17348;50.948;10.696;2024-02-26T18:49:58;8.20;99.90
30572;DHT22;17348;50.948;10.696;2024-02-26T18:53:01;8.10;99.90
30572;DHT22;17348;50.948;10.696;2024-02-26T18:56:05;8.10;99.90
30572;DHT22;17348;50.948;10.696;2024-02-26T18:59:07;8.00;99.90
30572;DHT22;17348;50.948;10.696;2024-02-26T19:02:15;7.90;99.90
30572;DHT22;17348;50.948;10.696;2024-02-26T19:05:18;7.90;99.90
30572;DHT22;17348;50.948;10.696;2024-02-26T19:08:26;7.90;99.90
30572;DHT22;17348;50.948;10.696;2024-02-26T19:11:30;7.90;99.90
30572;DHT22;17348;50.948;10.696;2024-02-26T19:14:32;7.80;99.90